createdAt,value
2019-03-08T00:00:45.318Z,994.50
2019-03-08T00:01:45.347Z,994.52
2019-03-08T00:02:45.376Z,994.48
2019-03-08T00:03:45.405Z,994.50
2019-03-08T00:04:45.429Z,994.49
2019-03-08T00:05:45.456Z,994.54
2019-03-08T00:06:45.483Z,994.55
2019-03-08T00:07:45.509Z,994.57
2019-03-08T00:08:45.538Z,994.61
2019-03-08T00:09:45.564Z,994.63
2019-03-08T00:10:45.592Z,994.60
2019-03-08T00:11:45.618Z,994.65
2019-03-08T00:12:45.643Z,994.66
2019-03-08T00:13:45.673Z,994.65
2019-03-08T00:14:45.699Z,994.67
2019-03-08T00:15:45.726Z,994.73
2019-03-08T00:16:45.756Z,994.67
2019-03-08T00:17:45.780Z,994.69
2019-03-08T00:18:45.810Z,994.66
2019-03-08T00:19:45.836Z,994.74
2019-03-08T00:20:45.865Z,994.74
2019-03-08T00:21:45.891Z,994.74
2019-03-08T00:22:45.916Z,994.69
2019-03-08T00:23:45.940Z,994.78
2019-03-08T00:24:45.967Z,994.72
2019-03-08T00:25:45.996Z,994.76
2019-03-08T00:26:46.024Z,994.78
2019-03-08T00:27:46.047Z,994.87
2019-03-08T00:28:46.080Z,994.84
2019-03-08T00:29:46.103Z,994.81
2019-03-08T00:30:46.133Z,994.76
2019-03-08T00:31:46.158Z,994.67
2019-03-08T00:32:46.184Z,994.67
2019-03-08T00:33:46.211Z,994.64
2019-03-08T00:34:46.242Z,994.69
2019-03-08T00:35:46.264Z,994.67
2019-03-08T00:36:46.293Z,994.67
2019-03-08T00:37:46.319Z,994.67
2019-03-08T00:38:46.344Z,994.65
2019-03-08T00:39:46.370Z,994.63
2019-03-08T00:40:46.399Z,994.63
2019-03-08T00:41:46.430Z,994.61
2019-03-08T00:42:46.454Z,994.57
2019-03-08T00:43:46.479Z,994.59
2019-03-08T00:44:46.503Z,994.56
2019-03-08T00:45:46.536Z,994.59
2019-03-08T00:46:46.566Z,994.53
2019-03-08T00:47:46.588Z,994.59
2019-03-08T00:48:46.612Z,994.57
2019-03-08T00:49:46.640Z,994.59
2019-03-08T00:50:46.666Z,994.63
2019-03-08T00:51:46.699Z,994.64
2019-03-08T00:52:46.719Z,994.66
2019-03-08T00:53:46.749Z,994.68
2019-03-08T00:54:46.775Z,994.71
2019-03-08T00:55:46.803Z,994.77
2019-03-08T00:56:46.829Z,994.81
2019-03-08T00:57:46.855Z,994.84
2019-03-08T00:58:46.889Z,994.91
2019-03-08T00:59:46.909Z,994.91
2019-03-08T01:00:46.941Z,994.92
2019-03-08T01:01:46.967Z,994.99
2019-03-08T01:02:46.991Z,994.94
2019-03-08T01:03:47.016Z,994.89
2019-03-08T01:04:47.048Z,994.86
2019-03-08T01:05:47.074Z,994.86
2019-03-08T01:06:47.101Z,994.90
2019-03-08T01:07:47.182Z,994.86
2019-03-08T01:08:47.154Z,994.86
2019-03-08T01:09:47.193Z,994.93
2019-03-08T01:10:47.211Z,994.89
2019-03-08T01:11:47.239Z,994.83
2019-03-08T01:12:47.263Z,994.75
2019-03-08T01:13:47.289Z,994.78
2019-03-08T01:14:47.320Z,994.78
2019-03-08T01:15:47.347Z,994.83
2019-03-08T01:16:47.377Z,994.85
2019-03-08T01:17:47.403Z,994.82
2019-03-08T01:18:47.449Z,994.77
2019-03-08T01:19:47.456Z,994.77
2019-03-08T01:20:47.481Z,994.73
2019-03-08T01:21:47.506Z,994.76
2019-03-08T01:22:47.534Z,994.83
2019-03-08T01:23:47.560Z,994.84
2019-03-08T01:24:47.587Z,994.87
2019-03-08T01:25:47.613Z,994.87
2019-03-08T01:26:47.644Z,994.81
2019-03-08T01:27:47.669Z,994.79
2019-03-08T01:28:47.696Z,994.77
2019-03-08T01:29:47.720Z,994.83
2019-03-08T01:30:47.749Z,994.78
2019-03-08T01:31:47.775Z,994.80
2019-03-08T01:32:47.803Z,994.80
2019-03-08T01:33:47.833Z,994.83
2019-03-08T01:34:47.857Z,994.93
2019-03-08T01:35:47.883Z,994.97
2019-03-08T01:36:47.912Z,994.99
2019-03-08T01:37:47.936Z,994.99
2019-03-08T01:38:47.966Z,995.06
2019-03-08T01:39:47.989Z,995.13
2019-03-08T01:40:48.018Z,995.10
2019-03-08T01:41:48.043Z,995.12
2019-03-08T01:42:48.069Z,995.14
2019-03-08T01:43:48.095Z,995.14
2019-03-08T01:44:48.123Z,995.13
2019-03-08T01:45:48.150Z,995.14
2019-03-08T01:46:48.177Z,995.04
2019-03-08T01:47:48.202Z,995.08
2019-03-08T01:48:48.231Z,995.06
2019-03-08T01:49:48.258Z,995.09
2019-03-08T01:50:48.284Z,995.08
2019-03-08T01:51:48.310Z,995.12
2019-03-08T01:52:48.335Z,995.08
2019-03-08T01:53:48.366Z,995.10
2019-03-08T01:54:48.392Z,995.09
2019-03-08T01:55:48.417Z,995.11
2019-03-08T01:56:48.447Z,995.09
2019-03-08T01:57:48.469Z,995.13
2019-03-08T01:58:48.498Z,995.10
2019-03-08T01:59:48.524Z,995.09
2019-03-08T02:00:48.549Z,995.08
2019-03-08T02:01:48.577Z,995.12
2019-03-08T02:02:48.611Z,995.04
2019-03-08T02:03:48.631Z,995.04
2019-03-08T02:04:48.654Z,995.00
2019-03-08T02:05:48.684Z,994.94
2019-03-08T02:06:48.709Z,994.95
2019-03-08T02:07:48.733Z,994.97
2019-03-08T02:08:48.761Z,994.92
2019-03-08T02:09:48.788Z,994.91
2019-03-08T02:10:48.814Z,994.88
2019-03-08T02:11:48.844Z,994.89
2019-03-08T02:12:48.867Z,994.90
2019-03-08T02:13:48.896Z,994.89
2019-03-08T02:14:48.920Z,994.91
2019-03-08T02:15:48.949Z,994.90
2019-03-08T02:16:48.972Z,994.96
2019-03-08T02:17:48.998Z,994.95
2019-03-08T02:18:49.026Z,994.93
2019-03-08T02:19:49.051Z,994.99
2019-03-08T02:20:49.085Z,994.97
2019-03-08T02:21:49.105Z,994.96
2019-03-08T02:22:49.131Z,994.92
2019-03-08T02:23:49.155Z,994.91
2019-03-08T02:24:49.183Z,994.94
2019-03-08T02:25:49.210Z,994.94
2019-03-08T02:26:49.241Z,994.92
2019-03-08T02:27:49.262Z,994.94
2019-03-08T02:28:49.291Z,994.95
2019-03-08T02:29:49.315Z,994.89
2019-03-08T02:30:49.340Z,994.92
2019-03-08T02:31:49.367Z,994.96
2019-03-08T02:32:49.392Z,994.99
2019-03-08T02:33:49.421Z,994.98
2019-03-08T02:34:49.445Z,994.95
2019-03-08T02:35:49.470Z,994.93
2019-03-08T02:36:49.499Z,994.94
2019-03-08T02:37:49.527Z,994.96
2019-03-08T02:38:49.551Z,994.92
2019-03-08T02:39:49.577Z,994.95
2019-03-08T02:40:49.602Z,994.95
2019-03-08T02:41:49.631Z,994.93
2019-03-08T02:42:49.657Z,994.94
2019-03-08T02:43:49.679Z,994.92
2019-03-08T02:44:49.706Z,994.92
2019-03-08T02:45:49.733Z,994.91
2019-03-08T02:46:49.759Z,994.92
2019-03-08T02:47:49.789Z,994.94
2019-03-08T02:48:49.812Z,994.93
2019-03-08T02:49:49.839Z,994.97
2019-03-08T02:50:49.865Z,994.97
2019-03-08T02:51:49.889Z,994.95
2019-03-08T02:52:49.919Z,994.97
2019-03-08T02:53:49.943Z,994.96
2019-03-08T02:54:49.967Z,994.93
2019-03-08T02:55:49.992Z,994.96
2019-03-08T02:56:50.019Z,994.97
2019-03-08T02:57:50.045Z,994.95
2019-03-08T02:58:50.074Z,994.94
2019-03-08T02:59:50.096Z,994.97
2019-03-08T03:00:50.123Z,994.96
2019-03-08T03:01:50.149Z,995.00
2019-03-08T03:02:50.177Z,995.00
2019-03-08T03:03:50.200Z,994.98
2019-03-08T03:04:50.227Z,995.06
2019-03-08T03:05:50.253Z,995.05
2019-03-08T03:06:50.298Z,995.06
2019-03-08T03:07:50.305Z,995.08
2019-03-08T03:08:50.331Z,995.05
2019-03-08T03:09:50.359Z,995.07
2019-03-08T03:10:50.382Z,995.10
2019-03-08T03:11:50.407Z,995.04
2019-03-08T03:12:50.435Z,995.08
2019-03-08T03:13:50.462Z,995.04
2019-03-08T03:14:50.487Z,995.09
2019-03-08T03:15:50.512Z,995.08
2019-03-08T03:16:50.543Z,995.10
2019-03-08T03:17:50.564Z,995.08
2019-03-08T03:18:50.589Z,995.06
2019-03-08T03:19:50.616Z,995.09
2019-03-08T03:20:50.641Z,995.10
2019-03-08T03:21:50.682Z,995.12
2019-03-08T03:22:50.693Z,995.12
2019-03-08T03:23:50.720Z,995.13
2019-03-08T03:24:50.753Z,995.14
2019-03-08T03:25:50.770Z,995.14
2019-03-08T03:26:50.803Z,995.15
2019-03-08T03:27:50.820Z,995.11
2019-03-08T03:28:50.847Z,995.14
2019-03-08T03:29:50.875Z,995.09
2019-03-08T03:30:50.902Z,995.15
2019-03-08T03:31:50.923Z,995.14
2019-03-08T03:32:50.949Z,995.12
2019-03-08T03:33:50.974Z,995.11
2019-03-08T03:34:50.999Z,995.15
2019-03-08T03:35:51.025Z,995.14
2019-03-08T03:36:51.053Z,995.15
2019-03-08T03:37:51.080Z,995.15
2019-03-08T03:38:51.102Z,995.14
2019-03-08T03:39:51.130Z,995.20
2019-03-08T03:40:51.154Z,995.16
2019-03-08T03:41:51.182Z,995.18
2019-03-08T03:42:51.203Z,995.21
2019-03-08T03:43:51.233Z,995.21
2019-03-08T03:44:51.254Z,995.19
2019-03-08T03:45:51.283Z,995.16
2019-03-08T03:46:51.307Z,995.16
2019-03-08T03:47:51.332Z,995.19
2019-03-08T03:48:51.358Z,995.17
2019-03-08T03:49:51.381Z,995.16
2019-03-08T03:50:51.410Z,995.17
2019-03-08T03:51:51.433Z,995.16
2019-03-08T03:52:51.462Z,995.13
2019-03-08T03:53:51.487Z,995.14
2019-03-08T03:54:51.511Z,995.15
2019-03-08T03:55:51.540Z,995.15
2019-03-08T03:56:53.512Z,995.12
2019-03-08T03:57:51.589Z,995.10
2019-03-08T03:58:51.614Z,995.10
2019-03-08T03:59:51.639Z,995.10
2019-03-08T04:00:51.667Z,995.07
2019-03-08T04:01:51.690Z,995.08
2019-03-08T04:02:51.718Z,994.99
2019-03-08T04:03:51.743Z,995.06
2019-03-08T04:04:51.779Z,995.02
2019-03-08T04:05:51.793Z,995.03
2019-03-08T04:06:51.820Z,995.02
2019-03-08T04:07:51.846Z,995.06
2019-03-08T04:08:51.870Z,995.05
2019-03-08T04:09:51.896Z,995.03
2019-03-08T04:10:51.929Z,995.06
2019-03-08T04:11:51.948Z,995.01
2019-03-08T04:12:51.974Z,995.02
2019-03-08T04:13:52.001Z,995.02
2019-03-08T04:14:52.027Z,995.04
2019-03-08T04:15:52.051Z,995.04
2019-03-08T04:16:52.076Z,995.03
2019-03-08T04:17:52.101Z,995.04
2019-03-08T04:18:52.132Z,995.01
2019-03-08T04:19:52.155Z,995.01
2019-03-08T04:20:52.181Z,994.99
2019-03-08T04:21:52.206Z,995.06
2019-03-08T04:22:52.233Z,994.97
2019-03-08T04:23:52.259Z,995.00
2019-03-08T04:24:52.284Z,994.97
2019-03-08T04:25:52.310Z,995.02
2019-03-08T04:26:52.337Z,994.99
2019-03-08T04:27:52.362Z,994.95
2019-03-08T04:28:52.387Z,994.94
2019-03-08T04:29:52.413Z,994.92
2019-03-08T04:30:52.439Z,994.94
2019-03-08T04:31:52.466Z,994.91
2019-03-08T04:32:52.494Z,994.90
2019-03-08T04:33:52.517Z,994.86
2019-03-08T04:34:52.547Z,994.86
2019-03-08T04:35:52.569Z,994.87
2019-03-08T04:36:52.594Z,994.90
2019-03-08T04:37:52.624Z,994.83
2019-03-08T04:38:52.650Z,994.87
2019-03-08T04:39:52.673Z,994.85
2019-03-08T04:40:52.699Z,994.87
2019-03-08T04:41:52.728Z,994.88
2019-03-08T04:42:52.751Z,994.88
2019-03-08T04:43:52.780Z,994.87
2019-03-08T04:44:52.803Z,994.83
2019-03-08T04:45:52.831Z,994.83
2019-03-08T04:46:52.856Z,994.84
2019-03-08T04:47:52.882Z,994.86
2019-03-08T04:48:52.909Z,994.83
2019-03-08T04:49:52.933Z,994.90
2019-03-08T04:50:52.960Z,994.86
2019-03-08T04:51:52.991Z,994.88
2019-03-08T04:52:53.010Z,994.87
2019-03-08T04:53:53.041Z,994.86
2019-03-08T04:54:53.063Z,994.84
2019-03-08T04:55:53.089Z,994.86
2019-03-08T04:56:53.116Z,994.80
2019-03-08T04:57:53.143Z,994.81
2019-03-08T04:58:53.169Z,994.81
2019-03-08T04:59:53.195Z,994.81
2019-03-08T05:00:53.219Z,994.80
2019-03-08T05:01:53.247Z,994.79
2019-03-08T05:02:53.271Z,994.80
2019-03-08T05:03:53.296Z,994.80
2019-03-08T05:04:53.326Z,994.78
2019-03-08T05:05:53.349Z,994.76
2019-03-08T05:06:53.376Z,994.74
2019-03-08T05:07:53.402Z,994.69
2019-03-08T05:08:53.429Z,994.75
2019-03-08T05:09:53.454Z,994.77
2019-03-08T05:10:53.481Z,994.77
2019-03-08T05:11:53.505Z,994.72
2019-03-08T05:12:53.529Z,994.71
2019-03-08T05:13:53.560Z,994.74
2019-03-08T05:14:53.585Z,994.70
2019-03-08T05:15:53.609Z,994.70
2019-03-08T05:16:53.635Z,994.69
2019-03-08T05:17:53.660Z,994.69
2019-03-08T05:18:53.687Z,994.70
2019-03-08T05:19:53.714Z,994.64
2019-03-08T05:20:53.740Z,994.72
2019-03-08T05:21:53.766Z,994.67
2019-03-08T05:22:53.792Z,994.71
2019-03-08T05:23:53.814Z,994.70
2019-03-08T05:24:53.843Z,994.67
2019-03-08T05:25:53.870Z,994.73
2019-03-08T05:26:53.896Z,994.73
2019-03-08T05:27:53.923Z,994.73
2019-03-08T05:28:53.948Z,994.72
2019-03-08T05:29:53.972Z,994.68
2019-03-08T05:30:53.998Z,994.71
2019-03-08T05:31:54.025Z,994.69
2019-03-08T05:32:54.051Z,994.69
2019-03-08T05:33:54.076Z,994.67
2019-03-08T05:34:54.103Z,994.65
2019-03-08T05:35:54.130Z,994.67
2019-03-08T05:36:54.158Z,994.64
2019-03-08T05:37:54.186Z,994.60
2019-03-08T05:38:54.209Z,994.67
2019-03-08T05:39:54.236Z,994.72
2019-03-08T05:40:54.268Z,994.65
2019-03-08T05:41:54.289Z,994.69
2019-03-08T05:42:54.315Z,994.69
2019-03-08T05:43:54.338Z,994.65
2019-03-08T05:44:54.364Z,994.59
2019-03-08T05:45:54.391Z,994.56
2019-03-08T05:46:54.419Z,994.66
2019-03-08T05:47:54.443Z,994.69
2019-03-08T05:48:54.471Z,994.67
2019-03-08T05:49:54.497Z,994.67
2019-03-08T05:50:54.526Z,994.70
2019-03-08T05:51:54.552Z,994.72
2019-03-08T05:52:54.578Z,994.70
2019-03-08T05:53:54.604Z,994.73
2019-03-08T05:54:54.631Z,994.70
2019-03-08T05:55:54.657Z,994.74
2019-03-08T05:56:54.688Z,994.75
2019-03-08T05:57:54.713Z,994.75
2019-03-08T05:58:54.740Z,994.69
2019-03-08T05:59:54.765Z,994.70
2019-03-08T06:00:54.792Z,994.69
2019-03-08T06:01:54.821Z,994.65
2019-03-08T06:02:54.849Z,994.65
2019-03-08T06:03:54.873Z,994.57
2019-03-08T06:04:54.902Z,994.59
2019-03-08T06:05:54.929Z,994.59
2019-03-08T06:06:54.959Z,994.56
2019-03-08T06:07:54.983Z,994.55
2019-03-08T06:08:55.010Z,994.60
2019-03-08T06:09:55.042Z,994.57
2019-03-08T06:10:55.068Z,994.51
2019-03-08T06:11:55.697Z,994.48
2019-03-08T06:12:55.125Z,994.43
2019-03-08T06:13:55.148Z,994.30
2019-03-08T06:14:55.176Z,994.37
2019-03-08T06:15:55.204Z,994.39
2019-03-08T06:16:55.232Z,994.37
2019-03-08T06:17:56.449Z,994.38
2019-03-08T06:18:55.293Z,994.47
2019-03-08T06:19:55.320Z,994.39
2019-03-08T06:20:55.348Z,994.38
2019-03-08T06:21:55.378Z,994.42
2019-03-08T06:22:55.409Z,994.44
2019-03-08T06:23:55.437Z,994.52
2019-03-08T06:24:55.467Z,994.54
2019-03-08T06:25:55.494Z,994.54
2019-03-08T06:26:55.541Z,994.50
2019-03-08T06:27:55.550Z,994.48
2019-03-08T06:28:55.581Z,994.43
2019-03-08T06:29:55.608Z,994.46
2019-03-08T06:30:55.642Z,994.43
2019-03-08T06:31:55.665Z,994.49
2019-03-08T06:32:55.694Z,994.46
2019-03-08T06:33:55.725Z,994.46
2019-03-08T06:34:55.757Z,994.51
2019-03-08T06:35:55.782Z,994.50
2019-03-08T06:36:55.808Z,994.46
2019-03-08T06:37:55.839Z,994.42
2019-03-08T06:38:55.867Z,994.39
2019-03-08T06:39:55.895Z,994.38
2019-03-08T06:40:55.926Z,994.40
2019-03-08T06:41:55.952Z,994.30
2019-03-08T06:42:56.034Z,994.41
2019-03-08T06:43:56.010Z,994.39
2019-03-08T06:44:56.038Z,994.27
2019-03-08T06:45:56.070Z,994.35
2019-03-08T06:46:56.099Z,994.37
2019-03-08T06:47:56.126Z,994.34
2019-03-08T06:48:56.153Z,994.32
2019-03-08T06:49:56.184Z,994.30
2019-03-08T06:50:56.211Z,994.24
2019-03-08T06:51:56.242Z,994.25
2019-03-08T06:52:56.270Z,994.25
2019-03-08T06:53:56.296Z,994.23
2019-03-08T06:54:56.326Z,994.20
2019-03-08T06:55:56.357Z,994.33
2019-03-08T06:56:56.382Z,994.32
2019-03-08T06:57:56.412Z,994.39
2019-03-08T06:58:56.443Z,994.35
2019-03-08T06:59:56.473Z,994.32
2019-03-08T07:00:56.503Z,994.30
2019-03-08T07:01:56.530Z,994.36
2019-03-08T07:02:56.561Z,994.28
2019-03-08T07:03:56.590Z,994.22
2019-03-08T07:04:56.625Z,994.22
2019-03-08T07:05:56.653Z,994.13
2019-03-08T07:06:56.684Z,994.09
2019-03-08T07:07:56.717Z,994.07
2019-03-08T07:08:56.749Z,994.04
2019-03-08T07:09:56.782Z,993.90
2019-03-08T07:10:56.814Z,994.02
2019-03-08T07:11:56.849Z,994.03
2019-03-08T07:13:03.137Z,994.06
2019-03-08T07:13:56.912Z,994.05
2019-03-08T07:14:56.947Z,994.02
2019-03-08T07:15:56.994Z,993.91
2019-03-08T07:16:57.014Z,993.99
2019-03-08T07:17:57.046Z,994.07
2019-03-08T07:18:57.129Z,994.05
2019-03-08T07:19:57.115Z,994.11
2019-03-08T07:20:57.146Z,994.02
2019-03-08T07:21:57.181Z,994.05
2019-03-08T07:22:57.213Z,994.02
2019-03-08T07:23:57.247Z,994.03
2019-03-08T07:24:57.284Z,994.06
2019-03-08T07:25:57.314Z,994.04
2019-03-08T07:26:57.353Z,994.06
2019-03-08T07:27:57.382Z,994.06
2019-03-08T07:28:57.581Z,994.14
2019-03-08T07:29:57.457Z,993.99
2019-03-08T07:30:58.248Z,993.99
2019-03-08T07:31:57.522Z,994.00
2019-03-08T07:32:57.554Z,994.01
2019-03-08T07:33:57.589Z,994.06
2019-03-08T07:34:57.623Z,994.16
2019-03-08T07:35:57.657Z,994.14
2019-03-08T07:36:57.692Z,994.19
2019-03-08T07:37:57.731Z,994.02
2019-03-08T07:38:57.761Z,994.03
2019-03-08T07:39:57.797Z,993.94
2019-03-08T07:40:57.834Z,993.88
2019-03-08T07:41:57.867Z,993.96
2019-03-08T07:42:57.907Z,994.02
2019-03-08T07:43:57.938Z,993.99
2019-03-08T07:44:57.976Z,993.99
2019-03-08T07:45:58.011Z,993.83
2019-03-08T07:46:58.045Z,993.83
2019-03-08T07:47:58.085Z,993.80
2019-03-08T07:48:58.118Z,993.75
2019-03-08T07:49:58.157Z,993.97
2019-03-08T07:50:58.188Z,993.82
2019-03-08T07:51:58.222Z,993.73
2019-03-08T07:52:58.259Z,993.68
2019-03-08T07:53:58.296Z,993.73
2019-03-08T07:54:58.335Z,993.85
2019-03-08T07:55:58.368Z,993.71
2019-03-08T07:56:58.401Z,993.72
2019-03-08T07:57:58.441Z,993.72
2019-03-08T07:58:58.478Z,993.64
2019-03-08T07:59:58.511Z,993.77
2019-03-08T08:00:58.545Z,993.59
2019-03-08T08:01:58.582Z,993.75
2019-03-08T08:03:03.492Z,993.75
2019-03-08T08:03:58.650Z,993.77
2019-03-08T08:04:58.690Z,993.72
2019-03-08T08:05:58.720Z,993.73
2019-03-08T08:06:58.757Z,993.66
2019-03-08T08:07:58.794Z,993.58
2019-03-08T08:08:58.827Z,993.73
2019-03-08T08:09:58.868Z,993.64
2019-03-08T08:10:58.910Z,993.60
2019-03-08T08:11:58.937Z,993.61
2019-03-08T08:12:58.991Z,993.54
2019-03-08T08:13:59.014Z,993.56
2019-03-08T08:14:59.058Z,993.56
2019-03-08T08:15:59.087Z,993.58
2019-03-08T08:16:59.119Z,993.51
2019-03-08T08:17:59.157Z,993.56
2019-03-08T08:18:59.199Z,993.61
2019-03-08T08:19:59.233Z,993.58
2019-03-08T08:21:01.200Z,993.49
2019-03-08T08:21:59.308Z,993.48
2019-03-08T08:22:59.347Z,993.50
2019-03-08T08:23:59.384Z,993.38
2019-03-08T08:24:59.422Z,993.51
2019-03-08T08:25:59.455Z,993.65
2019-03-08T08:26:59.496Z,993.62
2019-03-08T08:27:59.531Z,993.55
2019-03-08T08:28:59.571Z,993.50
2019-03-08T08:29:59.604Z,993.58
2019-03-08T08:30:59.647Z,993.36
2019-03-08T08:31:59.681Z,993.31
2019-03-08T08:32:59.716Z,993.37
2019-03-08T08:33:59.754Z,993.38
2019-03-08T08:34:59.792Z,993.36
2019-03-08T08:35:59.841Z,993.30
2019-03-08T08:36:59.867Z,993.28
2019-03-08T08:37:59.903Z,993.25
2019-03-08T08:38:59.941Z,993.21
2019-03-08T08:39:59.976Z,993.14
2019-03-08T08:41:00.012Z,993.15
2019-03-08T08:42:00.055Z,993.38
2019-03-08T08:43:00.087Z,993.30
2019-03-08T08:44:00.122Z,993.28
2019-03-08T08:45:00.236Z,993.29
2019-03-08T08:46:00.196Z,993.24
2019-03-08T08:47:00.231Z,993.34
2019-03-08T08:48:00.269Z,993.30
2019-03-08T08:49:00.306Z,993.35
2019-03-08T08:50:00.343Z,993.37
2019-03-08T08:51:00.379Z,993.28
2019-03-08T08:52:00.419Z,993.27
2019-03-08T08:53:00.454Z,993.30
2019-03-08T08:54:00.497Z,993.26
2019-03-08T08:55:00.529Z,993.27
2019-03-08T08:56:00.572Z,993.29
2019-03-08T08:57:00.605Z,993.13
2019-03-08T08:58:00.644Z,993.24
2019-03-08T08:59:00.683Z,993.11
2019-03-08T09:00:00.718Z,993.11
2019-03-08T09:01:00.756Z,993.13
2019-03-08T09:02:00.794Z,993.29
2019-03-08T09:03:00.830Z,993.21
2019-03-08T09:04:00.867Z,993.13
2019-03-08T09:05:01.296Z,993.16
2019-03-08T09:06:00.951Z,993.15
2019-03-08T09:07:00.981Z,992.94
2019-03-08T09:08:01.018Z,992.99
2019-03-08T09:09:01.056Z,993.13
2019-03-08T09:10:01.096Z,993.09
2019-03-08T09:11:01.133Z,993.10
2019-03-08T09:12:01.171Z,992.97
2019-03-08T09:13:01.213Z,993.01
2019-03-08T09:14:01.245Z,993.00
2019-03-08T09:15:01.289Z,992.92
2019-03-08T09:16:01.324Z,993.00
2019-03-08T09:17:01.360Z,993.02
2019-03-08T09:18:01.400Z,993.02
2019-03-08T09:19:01.438Z,993.01
2019-03-08T09:20:01.483Z,992.97
2019-03-08T09:21:01.513Z,992.86
2019-03-08T09:22:01.553Z,992.93
2019-03-08T09:23:01.591Z,992.78
2019-03-08T09:24:01.629Z,992.91
2019-03-08T09:25:01.672Z,993.02
2019-03-08T09:26:01.710Z,992.88
2019-03-08T09:27:01.750Z,993.00
2019-03-08T09:28:01.784Z,993.06
2019-03-08T09:29:01.824Z,993.00
2019-03-08T09:30:01.867Z,992.98
2019-03-08T09:31:01.907Z,992.72
2019-03-08T09:32:01.939Z,992.91
2019-03-08T09:33:01.979Z,992.85
2019-03-08T09:34:02.019Z,992.89
2019-03-08T09:35:02.060Z,992.89
2019-03-08T09:36:02.095Z,992.90
2019-03-08T09:37:02.133Z,992.91
2019-03-08T09:38:02.171Z,992.89
2019-03-08T09:39:02.211Z,992.85
2019-03-08T09:40:02.249Z,992.90
2019-03-08T09:41:02.289Z,992.82
2019-03-08T09:42:02.329Z,992.82
2019-03-08T09:43:02.369Z,992.81
2019-03-08T09:44:02.403Z,992.84
2019-03-08T09:45:02.442Z,992.76
2019-03-08T09:46:02.482Z,992.94
2019-03-08T09:47:02.521Z,993.03
2019-03-08T09:48:02.560Z,992.89
2019-03-08T09:49:02.599Z,992.76
2019-03-08T09:50:02.644Z,992.81
2019-03-08T09:51:02.680Z,992.83
2019-03-08T09:52:02.716Z,992.67
2019-03-08T09:53:02.756Z,992.58
2019-03-08T09:54:02.797Z,992.58
2019-03-08T09:55:02.836Z,992.59
2019-03-08T09:56:02.876Z,992.53
2019-03-08T09:57:02.916Z,992.48
2019-03-08T09:58:02.955Z,992.53
2019-03-08T09:59:02.995Z,992.58
2019-03-08T10:00:03.038Z,992.49
2019-03-08T10:01:03.071Z,992.54
2019-03-08T10:02:03.106Z,992.65
2019-03-08T10:03:03.778Z,992.55
2019-03-08T10:04:03.182Z,992.56
2019-03-08T10:05:03.224Z,992.50
2019-03-08T10:06:03.259Z,992.41
2019-03-08T10:07:03.296Z,992.35
2019-03-08T10:08:03.334Z,992.37
2019-03-08T10:09:03.369Z,992.52
2019-03-08T10:10:03.405Z,992.43
2019-03-08T10:11:03.447Z,992.47
2019-03-08T10:12:03.481Z,992.36
2019-03-08T10:13:03.516Z,992.20
2019-03-08T10:14:03.552Z,992.24
2019-03-08T10:15:03.589Z,992.17
2019-03-08T10:16:03.629Z,992.11
2019-03-08T10:17:03.662Z,992.06
2019-03-08T10:18:03.696Z,992.00
2019-03-08T10:19:03.738Z,992.06
2019-03-08T10:20:03.769Z,992.06
2019-03-08T10:21:03.806Z,992.28
2019-03-08T10:22:03.839Z,992.05
2019-03-08T10:23:03.879Z,992.10
2019-03-08T10:24:03.914Z,991.96
2019-03-08T10:25:03.952Z,992.18
2019-03-08T10:26:03.987Z,992.11
2019-03-08T10:27:04.022Z,992.08
2019-03-08T10:28:04.061Z,991.99
2019-03-08T10:29:04.096Z,992.14
2019-03-08T10:30:04.137Z,992.05
2019-03-08T10:31:04.175Z,992.00
2019-03-08T10:32:04.206Z,992.08
2019-03-08T10:33:04.244Z,991.98
2019-03-08T10:34:04.282Z,991.94
2019-03-08T10:35:04.317Z,992.09
2019-03-08T10:36:04.352Z,992.01
2019-03-08T10:37:04.388Z,992.01
2019-03-08T10:38:04.427Z,991.97
2019-03-08T10:39:04.462Z,992.00
2019-03-08T10:40:05.668Z,992.02
2019-03-08T10:41:04.533Z,992.01
2019-03-08T10:42:04.567Z,991.96
2019-03-08T10:43:04.602Z,991.93
2019-03-08T10:44:11.043Z,991.97
2019-03-08T10:45:04.673Z,991.98
2019-03-08T10:46:04.708Z,992.05
2019-03-08T10:47:04.740Z,991.98
2019-03-08T10:48:04.775Z,992.13
2019-03-08T10:49:04.807Z,991.89
2019-03-08T10:50:04.844Z,991.98
2019-03-08T10:51:04.878Z,991.77
2019-03-08T10:52:04.914Z,991.93
2019-03-08T10:53:04.946Z,992.08
2019-03-08T10:54:04.979Z,992.09
2019-03-08T10:55:05.016Z,992.05
2019-03-08T10:56:05.046Z,992.20
2019-03-08T10:57:05.082Z,992.12
2019-03-08T10:58:05.113Z,991.95
2019-03-08T10:59:05.153Z,991.90
2019-03-08T11:00:05.183Z,991.76
2019-03-08T11:01:05.217Z,991.46
2019-03-08T11:02:05.256Z,991.73
2019-03-08T11:03:05.286Z,991.50
2019-03-08T11:04:06.071Z,991.60
2019-03-08T11:05:05.355Z,991.79
2019-03-08T11:06:05.391Z,991.93
2019-03-08T11:07:05.428Z,991.76
2019-03-08T11:08:05.464Z,991.55
2019-03-08T11:09:05.498Z,991.53
2019-03-08T11:10:05.531Z,991.43
2019-03-08T11:11:06.612Z,991.34
2019-03-08T11:12:05.603Z,991.35
2019-03-08T11:13:05.641Z,991.33
2019-03-08T11:14:05.675Z,991.24
2019-03-08T11:15:05.709Z,991.29
2019-03-08T11:16:05.742Z,991.33
2019-03-08T11:17:05.783Z,991.27
2019-03-08T11:18:05.816Z,991.15
2019-03-08T11:19:08.767Z,991.08
2019-03-08T11:20:05.887Z,991.15
2019-03-08T11:21:05.920Z,991.12
2019-03-08T11:22:05.956Z,991.13
2019-03-08T11:23:05.992Z,991.13
2019-03-08T11:24:06.032Z,991.03
2019-03-08T11:25:08.534Z,991.04
2019-03-08T11:26:06.099Z,990.88
2019-03-08T11:27:06.128Z,990.92
2019-03-08T11:28:06.164Z,990.97
2019-03-08T11:29:06.198Z,990.87
2019-03-08T11:30:06.234Z,990.84
2019-03-08T11:31:06.268Z,990.87
2019-03-08T11:32:06.300Z,990.92
2019-03-08T11:33:06.335Z,990.86
2019-03-08T11:34:06.376Z,990.77
2019-03-08T11:35:06.405Z,990.81
2019-03-08T11:36:06.436Z,990.78
2019-03-08T11:37:06.469Z,990.73
2019-03-08T11:38:06.504Z,990.91
2019-03-08T11:39:06.537Z,990.77
2019-03-08T11:40:06.568Z,990.77
2019-03-08T11:41:06.603Z,990.78
2019-03-08T11:42:06.635Z,990.79
2019-03-08T11:43:06.671Z,990.78
2019-03-08T11:44:06.702Z,990.73
2019-03-08T11:45:06.732Z,990.67
2019-03-08T11:46:06.765Z,990.68
2019-03-08T11:47:06.800Z,990.79
2019-03-08T11:48:06.832Z,990.62
2019-03-08T11:49:06.867Z,990.74
2019-03-08T11:50:06.895Z,990.64
2019-03-08T11:51:06.927Z,990.64
2019-03-08T11:52:06.958Z,990.52
2019-03-08T11:53:06.993Z,990.62
2019-03-08T11:54:07.022Z,990.48
2019-03-08T11:55:07.075Z,990.58
2019-03-08T11:56:07.086Z,990.63
2019-03-08T11:57:07.118Z,990.54
2019-03-08T11:58:07.149Z,990.57
2019-03-08T11:59:07.183Z,990.59
2019-03-08T12:00:07.211Z,990.60
2019-03-08T12:01:07.243Z,990.56
2019-03-08T12:02:07.275Z,990.53
2019-03-08T12:03:07.310Z,990.52
2019-03-08T12:04:07.341Z,990.57
2019-03-08T12:05:07.368Z,990.60
2019-03-08T12:06:07.400Z,990.60
2019-03-08T12:07:07.433Z,990.63
2019-03-08T12:08:07.463Z,990.52
2019-03-08T12:09:07.492Z,990.54
2019-03-08T12:10:07.523Z,990.57
2019-03-08T12:11:07.554Z,990.59
2019-03-08T12:12:07.588Z,990.59
2019-03-08T12:13:07.618Z,990.61
2019-03-08T12:14:07.646Z,990.59
2019-03-08T12:15:07.678Z,990.63
2019-03-08T12:16:07.707Z,990.52
2019-03-08T12:17:07.736Z,990.55
2019-03-08T12:18:07.773Z,990.55
2019-03-08T12:19:07.798Z,990.52
2019-03-08T12:20:07.827Z,990.48
2019-03-08T12:21:07.857Z,990.51
2019-03-08T12:22:07.891Z,990.54
2019-03-08T12:23:07.919Z,990.51
2019-03-08T12:24:07.951Z,990.53
2019-03-08T12:25:07.978Z,990.53
2019-03-08T12:26:08.026Z,990.61
2019-03-08T12:27:08.037Z,990.63
2019-03-08T12:28:08.070Z,990.74
2019-03-08T12:29:08.098Z,990.87